»·PEaware :: N15JG KFAT-KSBA

N15JG :: KFAT-KSBA

FLIGHT INFORMATION

Flight Status: Arrived
Operator: Privately registered:
United States
More flights under this callsign
Pilot: Anonymous 11047 (11047)
Aircraft: Unknown
(P32R)
More flights by this aircraft type
Origin: KFAT Fresno Yosemite Intl
United States
Destination: KSBA Santa Barbara Mun
United States
More flights between these airports :: More routes between these airports
Route: +
File this flight plan on PilotEdge
Remarks:
Altitude:
(Current/Filed)
9,500ft
Speed:
(Current/Filed)
0kts
Departed: 18-Mar-18 08:34 AM
Arrived: 18-Mar-18 09:33 AM
Distance/Time
Traveled:
141nm/0:59
Distance/Time
To Go:
Arrived

Flight Plot

Page will automatically refresh every two minutes.

Flight plan parsing failed; only flown route is shown


Map Options




Map Legend


Flown Route
Filed Route
Departure Airport
Arrival Airport
Navaid (VOR, NDB)
Fix

Horizontal Profiles

Position Reports

Time Latitude Longitude Heading Altitude Ground
Speed
18-Mar-18 08:24 36.778958 -119.731086 124 328ft 0kts
18-Mar-18 08:25 36.778958 -119.731086 124 328ft 0kts
18-Mar-18 08:26 36.778958 -119.731086 124 328ft 0kts
18-Mar-18 08:27 36.778958 -119.731086 124 328ft 0kts
18-Mar-18 08:28 36.778958 -119.731086 124 328ft 0kts
18-Mar-18 08:29 36.779220 -119.730928 134 328ft 15kts
18-Mar-18 08:30 36.780048 -119.731250 331 328ft 14kts
18-Mar-18 08:31 36.782281 -119.732878 31 328ft 0kts
18-Mar-18 08:32 36.782496 -119.732701 33 328ft 9kts
18-Mar-18 08:33 36.776867 -119.721495 125 477ft 110kts
18-Mar-18 08:34 36.756111 -119.688468 127 2026ft 127kts
18-Mar-18 08:35 36.733766 -119.655014 130 3775ft 126kts
18-Mar-18 08:36 36.702295 -119.656355 224 5394ft 136kts
18-Mar-18 08:37 36.674629 -119.690544 218 6978ft 143kts
18-Mar-18 08:38 36.643649 -119.720746 194 8702ft 138kts
18-Mar-18 08:39 36.602900 -119.733204 196 9384ft 163kts
18-Mar-18 08:40 36.560295 -119.747843 191 9470ft 168kts
18-Mar-18 08:41 36.514017 -119.761225 186 9463ft 177kts
18-Mar-18 08:42 36.464566 -119.768133 193 9460ft 179kts
18-Mar-18 08:43 36.416068 -119.778155 189 9557ft 177kts
18-Mar-18 08:44 36.366381 -119.789883 205 9316ft 185kts
18-Mar-18 08:45 36.316962 -119.797208 182 9486ft 175kts
18-Mar-18 08:46 36.270245 -119.812016 197 9567ft 175kts
18-Mar-18 08:47 36.222286 -119.826751 193 9583ft 177kts
18-Mar-18 08:48 36.173269 -119.838384 194 9519ft 181kts
18-Mar-18 08:49 36.124266 -119.849562 189 9590ft 176kts
18-Mar-18 08:50 36.075807 -119.860106 194 9586ft 178kts
18-Mar-18 08:51 36.029220 -119.880956 204 9545ft 179kts
18-Mar-18 08:52 35.980071 -119.892290 191 9438ft 186kts
18-Mar-18 08:53 35.930072 -119.904749 191 9470ft 179kts
18-Mar-18 08:54 35.887385 -119.916368 196 9561ft 174kts
18-Mar-18 08:55 35.856543 -119.925365 195 9561ft 177kts
18-Mar-18 08:56 35.808538 -119.936090 188 9654ft 175kts
18-Mar-18 08:57 35.761051 -119.948831 192 9691ft 177kts
18-Mar-18 08:58 35.710633 -119.955025 182 9497ft 186kts
18-Mar-18 08:59 35.662840 -119.972885 205 9511ft 180kts
18-Mar-18 09:00 35.617536 -119.995393 198 9646ft 173kts
18-Mar-18 09:01 35.569407 -119.987691 164 9581ft 183kts
18-Mar-18 09:02 35.522814 -119.962630 147 9550ft 183kts
18-Mar-18 09:03 35.479378 -119.931556 149 9466ft 182kts
18-Mar-18 09:04 35.430805 -119.927512 184 9523ft 173kts
18-Mar-18 09:05 35.382742 -119.925334 169 9454ft 171kts
18-Mar-18 09:06 35.336308 -119.914568 167 9427ft 172kts
18-Mar-18 09:07 35.290188 -119.900494 164 9479ft 169kts
18-Mar-18 09:08 35.244306 -119.888952 171 9564ft 171kts
18-Mar-18 09:09 35.197577 -119.884971 176 9625ft 174kts
18-Mar-18 09:10 35.151485 -119.878813 166 9504ft 177kts
18-Mar-18 09:11 35.104464 -119.863001 160 9515ft 172kts
18-Mar-18 09:12 35.058733 -119.848744 169 9585ft 169kts
18-Mar-18 09:13 35.012111 -119.840285 177 9671ft 166kts
18-Mar-18 09:14 34.965830 -119.836573 170 9860ft 162kts
18-Mar-18 09:15 34.920248 -119.829206 172 10002ft 160kts
18-Mar-18 09:16 34.874444 -119.818878 164 9856ft 171kts
18-Mar-18 09:17 34.825983 -119.804985 181 9440ft 188kts
18-Mar-18 09:18 34.777744 -119.812437 188 9295ft 163kts
18-Mar-18 09:19 34.735672 -119.809746 171 9516ft 148kts
18-Mar-18 09:20 34.694240 -119.803099 168 9718ft 157kts
18-Mar-18 09:21 34.647509 -119.791254 165 9390ft 181kts
18-Mar-18 09:22 34.605032 -119.780201 172 9048ft 166kts
18-Mar-18 09:23 34.559037 -119.777969 176 8171ft 165kts
18-Mar-18 09:24 34.513834 -119.775263 175 7292ft 162kts
18-Mar-18 09:25 34.470164 -119.767928 164 6438ft 155kts
18-Mar-18 09:26 34.433301 -119.744944 114 5173ft 153kts
18-Mar-18 09:27 34.457100 -119.724769 310 3755ft 152kts
18-Mar-18 09:28 34.467717 -119.770130 252 2312ft 126kts
18-Mar-18 09:29 34.444233 -119.781956 173 1459ft 95kts
18-Mar-18 09:30 34.429337 -119.803906 261 627ft 88kts
18-Mar-18 09:31 34.428008 -119.831795 270 93ft 80kts
18-Mar-18 09:32 34.428460 -119.846271 5 16ft 9kts
18-Mar-18 09:33 34.429007 -119.845985 91 16ft 7kts
18-Mar-18 09:34 34.429224 -119.844983 159 16ft 0kts
18-Mar-18 09:35 34.429224 -119.844983 159 16ft 0kts
18-Mar-18 09:36 34.429224 -119.844983 159 16ft 0kts
18-Mar-18 09:37 34.429224 -119.844983 159 16ft 0kts

Navigation Log

Ident Type
Flight plan parsing failed, navigation log unavailable